sensor_id;sensor_type;location;lat;lon;timestamp;pressure;altitude;pressure_sealevel;temperature;humidity
69624;BME280;56843;52.020;5.670;2023-02-03T00:01:29;102217.72;;;12.66;68.59
69624;BME280;56843;52.020;5.670;2023-02-03T00:02:59;102217.72;;;12.66;68.82
69624;BME280;56843;52.020;5.670;2023-02-03T00:04:30;102220.88;;;12.68;68.33
69624;BME280;56843;52.020;5.670;2023-02-03T00:06:02;102216.31;;;12.68;68.42
69624;BME280;56843;52.020;5.670;2023-02-03T00:07:33;102233.16;;;12.69;68.46
69624;BME280;56843;52.020;5.670;2023-02-03T00:09:05;102235.84;;;12.69;68.34
69624;BME280;56843;52.020;5.670;2023-02-03T00:10:37;102236.34;;;12.71;68.23
69624;BME280;56843;52.020;5.670;2023-02-03T00:12:08;102249.75;;;12.71;68.63
69624;BME280;56843;52.020;5.670;2023-02-03T00:13:39;102247.06;;;12.71;67.98
69624;BME280;56843;52.020;5.670;2023-02-03T00:15:09;102250.53;;;12.71;68.45
69624;BME280;56843;52.020;5.670;2023-02-03T00:16:40;102230.97;;;12.71;68.61
69624;BME280;56843;52.020;5.670;2023-02-03T00:18:10;102233.38;;;12.72;68.21
69624;BME280;56843;52.020;5.670;2023-02-03T00:19:41;102239.00;;;12.71;68.16
69624;BME280;56843;52.020;5.670;2023-02-03T00:21:12;102239.81;;;12.71;68.07
69624;BME280;56843;52.020;5.670;2023-02-03T00:22:44;102250.53;;;12.71;68.15
69624;BME280;56843;52.020;5.670;2023-02-03T00:24:15;102254.50;;;12.74;68.34
69624;BME280;56843;52.020;5.670;2023-02-03T00:25:45;102249.16;;;12.74;68.14
69624;BME280;56843;52.020;5.670;2023-02-03T00:27:16;102263.63;;;12.73;68.14
69624;BME280;56843;52.020;5.670;2023-02-03T00:28:46;102254.50;;;12.74;68.32
69624;BME280;56843;52.020;5.670;2023-02-03T00:30:17;102254.50;;;12.74;68.08
69624;BME280;56843;52.020;5.670;2023-02-03T00:31:47;102250.22;;;12.73;67.98
69624;BME280;56843;52.020;5.670;2023-02-03T00:33:18;102261.47;;;12.75;67.92
69624;BME280;56843;52.020;5.670;2023-02-03T00:34:48;102265.22;;;12.74;67.89
69624;BME280;56843;52.020;5.670;2023-02-03T00:36:19;102261.75;;;12.73;68.31
69624;BME280;56843;52.020;5.670;2023-02-03T00:37:53;102258.78;;;12.75;68.14
69624;BME280;56843;52.020;5.670;2023-02-03T00:39:25;102260.66;;;12.74;67.89
69624;BME280;56843;52.020;5.670;2023-02-03T00:40:55;102271.09;;;12.76;67.73
69624;BME280;56843;52.020;5.670;2023-02-03T00:42:26;102261.97;;;12.77;67.73
69624;BME280;56843;52.020;5.670;2023-02-03T00:43:57;102263.03;;;12.76;67.74
69624;BME280;56843;52.020;5.670;2023-02-03T00:45:28;102264.16;;;12.75;68.02
69624;BME280;56843;52.020;5.670;2023-02-03T00:46:58;102265.72;;;12.76;67.91
69624;BME280;56843;52.020;5.670;2023-02-03T00:48:29;102263.03;;;12.76;67.99
69624;BME280;56843;52.020;5.670;2023-02-03T00:49:59;102265.72;;;12.76;67.55
69624;BME280;56843;52.020;5.670;2023-02-03T00:51:30;102269.19;;;12.76;67.99
69624;BME280;56843;52.020;5.670;2023-02-03T00:53:01;102261.97;;;12.77;67.59
69624;BME280;56843;52.020;5.670;2023-02-03T00:54:31;102270.00;;;12.77;67.97
69624;BME280;56843;52.020;5.670;2023-02-03T00:56:02;102279.91;;;12.76;67.84
69624;BME280;56843;52.020;5.670;2023-02-03T00:57:33;102266.53;;;12.76;67.74
69624;BME280;56843;52.020;5.670;2023-02-03T00:59:03;102272.19;;;12.75;67.52
69624;BME280;56843;52.020;5.670;2023-02-03T01:00:34;102282.91;;;12.75;67.46
69624;BME280;56843;52.020;5.670;2023-02-03T01:02:05;102273.44;;;12.77;67.41
69624;BME280;56843;52.020;5.670;2023-02-03T01:03:36;102269.19;;;12.76;67.63
69624;BME280;56843;52.020;5.670;2023-02-03T01:05:07;102257.38;;;12.77;67.56
69624;BME280;56843;52.020;5.670;2023-02-03T01:06:39;102250.94;;;12.78;67.55
69624;BME280;56843;52.020;5.670;2023-02-03T01:08:09;102254.69;;;12.77;67.68
69624;BME280;56843;52.020;5.670;2023-02-03T01:09:41;102235.16;;;12.77;67.68
69624;BME280;56843;52.020;5.670;2023-02-03T01:11:18;102230.56;;;12.77;67.65
69624;BME280;56843;52.020;5.670;2023-02-03T01:12:51;102240.50;;;12.77;67.56
69624;BME280;56843;52.020;5.670;2023-02-03T01:14:23;102233.56;;;12.76;67.41
69624;BME280;56843;52.020;5.670;2023-02-03T01:15:53;102240.50;;;12.77;67.56
69624;BME280;56843;52.020;5.670;2023-02-03T01:17:24;102235.91;;;12.77;67.36
69624;BME280;56843;52.020;5.670;2023-02-03T01:18:55;102234.03;;;12.78;67.25
69624;BME280;56843;52.020;5.670;2023-02-03T01:20:26;102244.75;;;12.78;67.30
69624;BME280;56843;52.020;5.670;2023-02-03T01:21:56;102235.91;;;12.77;67.29
69624;BME280;56843;52.020;5.670;2023-02-03T01:23:27;102243.69;;;12.79;67.39
69624;BME280;56843;52.020;5.670;2023-02-03T01:24:57;102232.47;;;12.77;67.42
69624;BME280;56843;52.020;5.670;2023-02-03T01:26:28;102238.31;;;12.79;67.34
69624;BME280;56843;52.020;5.670;2023-02-03T01:27:58;102231.34;;;12.78;67.25
69624;BME280;56843;52.020;5.670;2023-02-03T01:29:29;102238.31;;;12.79;67.52
69624;BME280;56843;52.020;5.670;2023-02-03T01:31:14;102231.88;;;12.80;67.19
69624;BME280;56843;52.020;5.670;2023-02-03T01:32:45;102232.47;;;12.77;67.68
69624;BME280;56843;52.020;5.670;2023-02-03T01:34:15;102238.59;;;12.77;67.39
69624;BME280;56843;52.020;5.670;2023-02-03T01:35:47;102231.34;;;12.78;67.37
69624;BME280;56843;52.020;5.670;2023-02-03T01:37:18;102227.09;;;12.77;67.55
69624;BME280;56843;52.020;5.670;2023-02-03T01:38:48;102221.44;;;12.78;67.43
69624;BME280;56843;52.020;5.670;2023-02-03T01:40:19;102210.72;;;12.78;67.20
69624;BME280;56843;52.020;5.670;2023-02-03T01:41:49;102200.78;;;12.79;67.48
69624;BME280;56843;52.020;5.670;2023-02-03T01:44:59;102197.31;;;12.78;67.41
69624;BME280;56843;52.020;5.670;2023-02-03T01:46:34;102192.75;;;12.79;67.38
69624;BME280;56843;52.020;5.670;2023-02-03T01:48:07;102190.34;;;12.77;67.23
69624;BME280;56843;52.020;5.670;2023-02-03T01:49:38;102200.00;;;12.78;67.16
69624;BME280;56843;52.020;5.670;2023-02-03T01:51:10;102187.66;;;12.77;67.45
69624;BME280;56843;52.020;5.670;2023-02-03T01:52:42;102192.75;;;12.79;67.10
69624;BME280;56843;52.020;5.670;2023-02-03T01:54:21;102193.25;;;12.81;67.19
69624;BME280;56843;52.020;5.670;2023-02-03T01:55:53;102198.09;;;12.79;67.31
69624;BME280;56843;52.020;5.670;2023-02-03T01:57:30;102196.25;;;12.79;66.99
69624;BME280;56843;52.020;5.670;2023-02-03T01:59:01;102197.63;;;12.77;67.22
69624;BME280;56843;52.020;5.670;2023-02-03T02:03:08;102201.22;;;12.72;67.52
69624;BME280;56843;52.020;5.670;2023-02-03T02:04:54;102204.56;;;12.78;67.27
69624;BME280;56843;52.020;5.670;2023-02-03T02:06:27;102197.13;;;12.75;67.46
69624;BME280;56843;52.020;5.670;2023-02-03T02:07:59;102190.66;;;12.76;67.29
69624;BME280;56843;52.020;5.670;2023-02-03T02:09:31;102185.78;;;12.78;67.22
69624;BME280;56843;52.020;5.670;2023-02-03T02:11:02;102173.97;;;12.79;67.19
69624;BME280;56843;52.020;5.670;2023-02-03T02:12:32;102183.63;;;12.80;67.29
69624;BME280;56843;52.020;5.670;2023-02-03T02:14:03;102180.94;;;12.80;67.28
69624;BME280;56843;52.020;5.670;2023-02-03T02:15:47;102169.13;;;12.81;66.96
69624;BME280;56843;52.020;5.670;2023-02-03T02:19:19;102169.94;;;12.81;67.04
69624;BME280;56843;52.020;5.670;2023-02-03T02:30:48;102199.81;;;12.75;67.13
69624;BME280;56843;52.020;5.670;2023-02-03T02:34:06;102199.50;;;12.76;67.04
69624;BME280;56843;52.020;5.670;2023-02-03T02:39:22;102197.03;;;12.80;67.21
69624;BME280;56843;52.020;5.670;2023-02-03T02:41:09;102200.31;;;12.77;67.34
69624;BME280;56843;52.020;5.670;2023-02-03T02:44:37;102184.97;;;12.77;67.37
69624;BME280;56843;52.020;5.670;2023-02-03T02:46:14;102183.91;;;12.78;67.18
69624;BME280;56843;52.020;5.670;2023-02-03T02:47:48;102180.94;;;12.80;67.30
69624;BME280;56843;52.020;5.670;2023-02-03T02:49:33;102173.38;;;12.82;67.32
69624;BME280;56843;52.020;5.670;2023-02-03T02:51:07;102185.22;;;12.81;67.43
69624;BME280;56843;52.020;5.670;2023-02-03T02:52:40;102184.91;;;12.82;67.47
69624;BME280;56843;52.020;5.670;2023-02-03T02:54:16;102182.22;;;12.82;67.50
69624;BME280;56843;52.020;5.670;2023-02-03T02:55:49;102180.34;;;12.83;67.45
69624;BME280;56843;52.020;5.670;2023-02-03T02:57:22;102161.56;;;12.83;67.16
69624;BME280;56843;52.020;5.670;2023-02-03T02:58:57;102161.56;;;12.83;67.34
69624;BME280;56843;52.020;5.670;2023-02-03T03:00:30;102163.94;;;12.84;67.36
69624;BME280;56843;52.020;5.670;2023-02-03T03:02:01;102167.44;;;12.85;67.20
69624;BME280;56843;52.020;5.670;2023-02-03T03:03:32;102162.06;;;12.85;67.29
69624;BME280;56843;52.020;5.670;2023-02-03T03:05:05;102158.31;;;12.86;67.33
69624;BME280;56843;52.020;5.670;2023-02-03T03:06:47;102152.94;;;12.86;67.20
69624;BME280;56843;52.020;5.670;2023-02-03T03:08:31;102158.31;;;12.86;67.37
69624;BME280;56843;52.020;5.670;2023-02-03T03:10:07;102159.38;;;12.85;67.28
69624;BME280;56843;52.020;5.670;2023-02-03T03:11:43;102152.13;;;12.85;67.54
69624;BME280;56843;52.020;5.670;2023-02-03T03:13:20;102150.25;;;12.86;67.45
69624;BME280;56843;52.020;5.670;2023-02-03T03:15:00;102135.75;;;12.87;67.15
69624;BME280;56843;52.020;5.670;2023-02-03T03:16:34;102136.84;;;12.86;67.24
69624;BME280;56843;52.020;5.670;2023-02-03T03:18:19;102148.84;;;12.88;67.39
69624;BME280;56843;52.020;5.670;2023-02-03T03:19:54;102160.97;;;12.86;67.39
69624;BME280;56843;52.020;5.670;2023-02-03T03:21:30;102151.03;;;12.86;67.16
69624;BME280;56843;52.020;5.670;2023-02-03T03:23:05;102149.16;;;12.87;67.43
69624;BME280;56843;52.020;5.670;2023-02-03T03:24:41;102163.34;;;12.87;67.08
69624;BME280;56843;52.020;5.670;2023-02-03T03:26:19;102158.00;;;12.87;67.48
69624;BME280;56843;52.020;5.670;2023-02-03T03:27:57;102150.75;;;12.88;67.40
69624;BME280;56843;52.020;5.670;2023-02-03T03:29:31;102160.66;;;12.87;67.24
69624;BME280;56843;52.020;5.670;2023-02-03T03:31:04;102158.78;;;12.88;67.10
69624;BME280;56843;52.020;5.670;2023-02-03T03:32:35;102144.59;;;12.87;67.28
69624;BME280;56843;52.020;5.670;2023-02-03T03:34:08;102158.16;;;12.91;67.23
69624;BME280;56843;52.020;5.670;2023-02-03T03:35:45;102151.22;;;12.90;67.24
69624;BME280;56843;52.020;5.670;2023-02-03T03:39:12;102180.72;;;12.90;67.25
69624;BME280;56843;52.020;5.670;2023-02-03T03:40:51;102175.34;;;12.90;67.48
69624;BME280;56843;52.020;5.670;2023-02-03T03:42:37;102175.34;;;12.90;67.30
69624;BME280;56843;52.020;5.670;2023-02-03T03:44:12;102179.91;;;12.89;67.42
69624;BME280;56843;52.020;5.670;2023-02-03T03:45:57;102173.16;;;12.92;67.08
69624;BME280;56843;52.020;5.670;2023-02-03T03:47:36;102179.91;;;12.89;67.17
69624;BME280;56843;52.020;5.670;2023-02-03T03:49:09;102185.28;;;12.89;67.36
69624;BME280;56843;52.020;5.670;2023-02-03T03:50:46;102178.03;;;12.90;67.37
69624;BME280;56843;52.020;5.670;2023-02-03T03:52:22;102187.66;;;12.91;67.29
69624;BME280;56843;52.020;5.670;2023-02-03T03:53:58;102177.41;;;12.93;67.22
69624;BME280;56843;52.020;5.670;2023-02-03T03:55:32;102183.88;;;12.92;67.42
69624;BME280;56843;52.020;5.670;2023-02-03T03:57:51;102190.06;;;12.92;67.48
69624;BME280;56843;52.020;5.670;2023-02-03T03:59:03;102181.53;;;12.90;67.41
69624;BME280;56843;52.020;5.670;2023-02-03T04:00:37;102184.19;;;12.90;67.54
69624;BME280;56843;52.020;5.670;2023-02-03T04:02:11;102190.06;;;12.92;67.45
69624;BME280;56843;52.020;5.670;2023-02-03T04:03:48;102190.81;;;12.93;67.53
69624;BME280;56843;52.020;5.670;2023-02-03T04:05:21;102184.69;;;12.92;67.58
69624;BME280;56843;52.020;5.670;2023-02-03T04:06:52;102189.75;;;12.94;67.47
69624;BME280;56843;52.020;5.670;2023-02-03T04:08:24;102196.97;;;12.93;67.25
69624;BME280;56843;52.020;5.670;2023-02-03T04:09:54;102196.66;;;12.95;67.25
69624;BME280;56843;52.020;5.670;2023-02-03T04:11:25;102191.63;;;12.93;67.28
69624;BME280;56843;52.020;5.670;2023-02-03T04:13:14;102194.63;;;12.92;67.18
69624;BME280;56843;52.020;5.670;2023-02-03T04:14:45;102187.38;;;12.92;67.27
69624;BME280;56843;52.020;5.670;2023-02-03T04:16:15;102192.41;;;12.94;67.56
69624;BME280;56843;52.020;5.670;2023-02-03T04:17:46;102184.38;;;12.94;67.47
69624;BME280;56843;52.020;5.670;2023-02-03T04:19:16;102181.69;;;12.94;67.58
69624;BME280;56843;52.020;5.670;2023-02-03T04:20:47;102179.50;;;12.96;67.27
69624;BME280;56843;52.020;5.670;2023-02-03T04:22:17;102178.69;;;12.95;67.29
69624;BME280;56843;52.020;5.670;2023-02-03T04:23:48;102183.25;;;12.95;67.58
69624;BME280;56843;52.020;5.670;2023-02-03T04:25:20;102184.06;;;12.95;67.44
69624;BME280;56843;52.020;5.670;2023-02-03T04:26:51;102187.53;;;12.96;67.44
69624;BME280;56843;52.020;5.670;2023-02-03T04:28:22;102192.59;;;12.97;67.29
69624;BME280;56843;52.020;5.670;2023-02-03T04:29:52;102197.19;;;12.97;67.60
69624;BME280;56843;52.020;5.670;2023-02-03T04:31:23;102198.25;;;12.96;67.54
69624;BME280;56843;52.020;5.670;2023-02-03T04:32:53;102191.81;;;12.97;67.53
69624;BME280;56843;52.020;5.670;2023-02-03T04:34:24;102194.50;;;12.97;67.49
69624;BME280;56843;52.020;5.670;2023-02-03T04:35:54;102182.66;;;12.98;67.56
69624;BME280;56843;52.020;5.670;2023-02-03T04:37:25;102184.53;;;12.97;67.48
69624;BME280;56843;52.020;5.670;2023-02-03T04:38:58;102171.44;;;12.96;67.45
69624;BME280;56843;52.020;5.670;2023-02-03T04:40:29;102172.72;;;12.98;67.25
69624;BME280;56843;52.020;5.670;2023-02-03T04:41:59;102162.81;;;12.99;67.29
69624;BME280;56843;52.020;5.670;2023-02-03T04:43:30;102170.06;;;12.98;67.22
69624;BME280;56843;52.020;5.670;2023-02-03T04:45:00;102176.22;;;12.99;67.47
69624;BME280;56843;52.020;5.670;2023-02-03T04:46:30;102169.75;;;13.00;67.42
69624;BME280;56843;52.020;5.670;2023-02-03T04:48:01;102171.63;;;12.99;67.32
69624;BME280;56843;52.020;5.670;2023-02-03T04:49:33;102165.50;;;12.99;67.44
69624;BME280;56843;52.020;5.670;2023-02-03T04:51:06;102160.91;;;12.99;67.40
69624;BME280;56843;52.020;5.670;2023-02-03T04:52:37;102162.00;;;12.98;67.33
69624;BME280;56843;52.020;5.670;2023-02-03T04:54:07;102150.97;;;13.00;67.12
69624;BME280;56843;52.020;5.670;2023-02-03T04:55:38;102171.34;;;13.01;67.29
69624;BME280;56843;52.020;5.670;2023-02-03T04:57:08;102173.53;;;12.99;67.40
69624;BME280;56843;52.020;5.670;2023-02-03T04:58:39;102161.69;;;13.00;67.27
69624;BME280;56843;52.020;5.670;2023-02-03T05:00:10;102167.53;;;13.02;67.11
69624;BME280;56843;52.020;5.670;2023-02-03T05:01:40;102168.66;;;13.01;67.15
69624;BME280;56843;52.020;5.670;2023-02-03T05:03:11;102166.78;;;13.01;67.55
69624;BME280;56843;52.020;5.670;2023-02-03T05:04:41;102165.97;;;13.01;67.39
69624;BME280;56843;52.020;5.670;2023-02-03T05:06:12;102164.09;;;13.01;67.41
69624;BME280;56843;52.020;5.670;2023-02-03T05:07:43;102163.28;;;13.01;67.35
69624;BME280;56843;52.020;5.670;2023-02-03T05:09:13;102166.78;;;13.01;67.29
69624;BME280;56843;52.020;5.670;2023-02-03T05:10:44;102168.66;;;13.01;67.57
69624;BME280;56843;52.020;5.670;2023-02-03T05:12:14;102165.19;;;13.00;67.22
69624;BME280;56843;52.020;5.670;2023-02-03T05:13:45;102161.69;;;13.00;67.31
69624;BME280;56843;52.020;5.670;2023-02-03T05:15:15;102155.53;;;12.99;67.24
69624;BME280;56843;52.020;5.670;2023-02-03T05:16:46;102162.50;;;13.00;67.33
69624;BME280;56843;52.020;5.670;2023-02-03T05:18:16;102162.50;;;13.00;67.14
69624;BME280;56843;52.020;5.670;2023-02-03T05:19:47;102160.59;;;13.01;67.26
69624;BME280;56843;52.020;5.670;2023-02-03T05:21:17;102161.69;;;13.00;67.25
69624;BME280;56843;52.020;5.670;2023-02-03T05:22:48;102153.66;;;13.00;67.14
69624;BME280;56843;52.020;5.670;2023-02-03T05:24:18;102163.28;;;13.01;67.19
69624;BME280;56843;52.020;5.670;2023-02-03T05:25:49;102162.50;;;13.00;67.25
69624;BME280;56843;52.020;5.670;2023-02-03T05:27:19;102186.63;;;13.00;67.53
69624;BME280;56843;52.020;5.670;2023-02-03T05:28:50;102178.59;;;13.00;67.22
69624;BME280;56843;52.020;5.670;2023-02-03T05:30:20;102185.81;;;13.00;67.26
69624;BME280;56843;52.020;5.670;2023-02-03T05:31:51;102177.78;;;13.00;67.35
69624;BME280;56843;52.020;5.670;2023-02-03T05:33:22;102166.25;;;12.99;67.57
69624;BME280;56843;52.020;5.670;2023-02-03T05:34:52;102169.75;;;13.00;67.18
69624;BME280;56843;52.020;5.670;2023-02-03T05:36:23;102172.72;;;12.98;67.31
69624;BME280;56843;52.020;5.670;2023-02-03T05:37:53;102163.56;;;12.99;67.34
69624;BME280;56843;52.020;5.670;2023-02-03T05:39:24;102169.75;;;13.00;67.30
69624;BME280;56843;52.020;5.670;2023-02-03T05:40:54;102162.81;;;12.99;67.40
69624;BME280;56843;52.020;5.670;2023-02-03T05:42:47;102158.84;;;12.96;67.41
69624;BME280;56843;52.020;5.670;2023-02-03T05:44:25;102167.38;;;12.98;67.19
69624;BME280;56843;52.020;5.670;2023-02-03T05:46:01;102158.84;;;12.96;67.24
69624;BME280;56843;52.020;5.670;2023-02-03T05:47:31;102156.97;;;12.97;67.22
69624;BME280;56843;52.020;5.670;2023-02-03T05:49:02;102153.16;;;12.98;67.46
69624;BME280;56843;52.020;5.670;2023-02-03T05:50:33;102162.81;;;12.99;67.09
69624;BME280;56843;52.020;5.670;2023-02-03T05:52:10;102164.69;;;12.98;67.47
69624;BME280;56843;52.020;5.670;2023-02-03T05:53:41;102176.22;;;12.99;67.42
69624;BME280;56843;52.020;5.670;2023-02-03T05:55:11;102167.38;;;12.98;67.48
69624;BME280;56843;52.020;5.670;2023-02-03T05:56:42;102166.56;;;12.98;67.23
69624;BME280;56843;52.020;5.670;2023-02-03T05:58:13;102168.94;;;12.99;67.31
69624;BME280;56843;52.020;5.670;2023-02-03T05:59:43;102176.97;;;12.99;67.20
69624;BME280;56843;52.020;5.670;2023-02-03T06:01:14;102178.91;;;12.99;67.18
69624;BME280;56843;52.020;5.670;2023-02-03T06:02:44;102183.47;;;12.98;67.11
69624;BME280;56843;52.020;5.670;2023-02-03T06:04:15;102178.09;;;12.98;67.28
69624;BME280;56843;52.020;5.670;2023-02-03T06:05:45;102179.97;;;12.98;67.05
69624;BME280;56843;52.020;5.670;2023-02-03T06:07:16;102182.66;;;12.98;67.13
69624;BME280;56843;52.020;5.670;2023-02-03T06:08:46;102175.41;;;12.98;67.37
69624;BME280;56843;52.020;5.670;2023-02-03T06:10:17;102174.63;;;12.98;67.10
69624;BME280;56843;52.020;5.670;2023-02-03T06:11:47;102176.22;;;12.99;67.45
69624;BME280;56843;52.020;5.670;2023-02-03T06:13:18;102176.22;;;12.99;67.41
69624;BME280;56843;52.020;5.670;2023-02-03T06:14:48;102170.06;;;12.98;67.34
69624;BME280;56843;52.020;5.670;2023-02-03T06:16:19;102172.72;;;12.98;67.41
69624;BME280;56843;52.020;5.670;2023-02-03T06:17:50;102168.94;;;12.99;67.24
69624;BME280;56843;52.020;5.670;2023-02-03T06:19:21;102172.41;;;13.00;67.44
69624;BME280;56843;52.020;5.670;2023-02-03T06:20:51;102153.66;;;13.00;67.57
69624;BME280;56843;52.020;5.670;2023-02-03T06:22:22;102158.72;;;13.01;67.55
69624;BME280;56843;52.020;5.670;2023-02-03T06:23:52;102161.41;;;13.01;67.62
69624;BME280;56843;52.020;5.670;2023-02-03T06:25:24;102163.56;;;12.99;67.28
69624;BME280;56843;52.020;5.670;2023-02-03T06:26:54;102162.81;;;12.99;67.56
69624;BME280;56843;52.020;5.670;2023-02-03T06:28:25;102162.00;;;12.98;67.51
69624;BME280;56843;52.020;5.670;2023-02-03T06:29:56;102161.22;;;12.98;67.77
69624;BME280;56843;52.020;5.670;2023-02-03T06:31:26;102170.38;;;12.97;67.46
69624;BME280;56843;52.020;5.670;2023-02-03T06:32:57;102173.81;;;12.97;67.69
69624;BME280;56843;52.020;5.670;2023-02-03T06:34:28;102169.25;;;12.98;67.49
69624;BME280;56843;52.020;5.670;2023-02-03T06:35:58;102177.31;;;12.98;67.70
69624;BME280;56843;52.020;5.670;2023-02-03T06:37:32;102177.31;;;12.98;67.77
69624;BME280;56843;52.020;5.670;2023-02-03T06:39:03;102198.44;;;12.99;67.56
69624;BME280;56843;52.020;5.670;2023-02-03T06:40:33;102195.00;;;12.99;67.46
69624;BME280;56843;52.020;5.670;2023-02-03T06:42:03;102195.75;;;12.99;67.64
69624;BME280;56843;52.020;5.670;2023-02-03T06:43:34;102183.16;;;13.00;67.48
69624;BME280;56843;52.020;5.670;2023-02-03T06:45:05;102193.06;;;12.99;67.51
69624;BME280;56843;52.020;5.670;2023-02-03T06:46:36;102200.84;;;13.01;67.07
69624;BME280;56843;52.020;5.670;2023-02-03T06:48:07;102194.66;;;13.00;67.37
69624;BME280;56843;52.020;5.670;2023-02-03T06:49:37;102190.41;;;12.99;66.96
69624;BME280;56843;52.020;5.670;2023-02-03T06:51:08;102191.19;;;13.00;67.32
69624;BME280;56843;52.020;5.670;2023-02-03T06:52:39;102185.81;;;13.00;66.99
69624;BME280;56843;52.020;5.670;2023-02-03T06:54:11;102182.34;;;12.99;66.83
69624;BME280;56843;52.020;5.670;2023-02-03T06:55:41;102185.34;;;12.98;67.08
69624;BME280;56843;52.020;5.670;2023-02-03T06:57:12;102189.63;;;12.99;67.06
69624;BME280;56843;52.020;5.670;2023-02-03T06:58:42;102193.38;;;12.98;67.07
69624;BME280;56843;52.020;5.670;2023-02-03T07:00:15;102198.75;;;12.98;67.12
69624;BME280;56843;52.020;5.670;2023-02-03T07:01:46;102201.75;;;12.96;66.86
69624;BME280;56843;52.020;5.670;2023-02-03T07:03:16;102208.19;;;12.95;66.72
69624;BME280;56843;52.020;5.670;2023-02-03T07:04:47;102210.06;;;12.95;66.75
69624;BME280;56843;52.020;5.670;2023-02-03T07:06:17;102215.44;;;12.95;67.06
69624;BME280;56843;52.020;5.670;2023-02-03T07:07:48;102216.25;;;12.95;66.64
69624;BME280;56843;52.020;5.670;2023-02-03T07:09:18;102214.66;;;12.94;66.89
69624;BME280;56843;52.020;5.670;2023-02-03T07:10:53;102209.31;;;12.94;66.54
69624;BME280;56843;52.020;5.670;2023-02-03T07:12:23;102231.84;;;12.93;66.71
69624;BME280;56843;52.020;5.670;2023-02-03T07:13:54;102215.25;;;12.91;66.54
69624;BME280;56843;52.020;5.670;2023-02-03T07:15:24;102222.22;;;12.92;66.61
69624;BME280;56843;52.020;5.670;2023-02-03T07:16:55;102212.59;;;12.91;66.41
69624;BME280;56843;52.020;5.670;2023-02-03T07:18:25;102221.44;;;12.92;66.51
69624;BME280;56843;52.020;5.670;2023-02-03T07:19:56;102225.19;;;12.91;66.57
69624;BME280;56843;52.020;5.670;2023-02-03T07:21:26;102229.78;;;12.90;66.57
69624;BME280;56843;52.020;5.670;2023-02-03T07:22:57;102221.75;;;12.90;66.70
69624;BME280;56843;52.020;5.670;2023-02-03T07:24:27;102218.25;;;12.90;66.56
69624;BME280;56843;52.020;5.670;2023-02-03T07:25:59;102225.50;;;12.89;66.45
69624;BME280;56843;52.020;5.670;2023-02-03T07:27:30;102220.13;;;12.89;66.55
69624;BME280;56843;52.020;5.670;2023-02-03T07:29:00;102223.63;;;12.90;66.61
69624;BME280;56843;52.020;5.670;2023-02-03T07:30:31;102223.31;;;12.91;66.43
69624;BME280;56843;52.020;5.670;2023-02-03T07:32:01;102213.38;;;12.92;66.44
69624;BME280;56843;52.020;5.670;2023-02-03T07:33:32;102227.28;;;12.94;66.58
69624;BME280;56843;52.020;5.670;2023-02-03T07:35:03;102213.06;;;12.93;66.39
69624;BME280;56843;52.020;5.670;2023-02-03T07:36:33;102218.44;;;12.93;66.30
69624;BME280;56843;52.020;5.670;2023-02-03T07:38:04;102218.13;;;12.95;66.63
69624;BME280;56843;52.020;5.670;2023-02-03T07:39:34;102214.34;;;12.96;66.54
69624;BME280;56843;52.020;5.670;2023-02-03T07:41:05;102211.69;;;12.96;66.53
69624;BME280;56843;52.020;5.670;2023-02-03T07:42:40;102222.09;;;12.97;66.33
69624;BME280;56843;52.020;5.670;2023-02-03T07:44:11;102218.63;;;12.97;66.31
69624;BME280;56843;52.020;5.670;2023-02-03T07:45:42;102222.56;;;12.99;66.58
69624;BME280;56843;52.020;5.670;2023-02-03T07:47:12;102224.16;;;13.00;66.56
69624;BME280;56843;52.020;5.670;2023-02-03T07:48:43;102211.84;;;12.99;66.30
69624;BME280;56843;52.020;5.670;2023-02-03T07:50:13;102221.50;;;13.00;66.50
69624;BME280;56843;52.020;5.670;2023-02-03T07:51:44;102211.25;;;13.02;66.50
69624;BME280;56843;52.020;5.670;2023-02-03T07:53:14;102216.63;;;13.02;66.56
69624;BME280;56843;52.020;5.670;2023-02-03T07:54:45;102212.84;;;13.03;66.72
69624;BME280;56843;52.020;5.670;2023-02-03T07:56:15;102219.78;;;13.04;66.54
69624;BME280;56843;52.020;5.670;2023-02-03T07:57:45;102229.13;;;13.07;66.56
69624;BME280;56843;52.020;5.670;2023-02-03T07:59:16;102229.13;;;13.07;66.57
69624;BME280;56843;52.020;5.670;2023-02-03T08:00:46;102228.81;;;13.08;66.48
69624;BME280;56843;52.020;5.670;2023-02-03T08:02:17;102231.97;;;13.10;66.52
69624;BME280;56843;52.020;5.670;2023-02-03T08:03:47;102240.81;;;13.11;66.41
69624;BME280;56843;52.020;5.670;2023-02-03T08:05:18;102238.63;;;13.13;66.68
69624;BME280;56843;52.020;5.670;2023-02-03T08:06:49;102232.16;;;13.14;66.78
69624;BME280;56843;52.020;5.670;2023-02-03T08:08:20;102244.47;;;13.15;66.59
69624;BME280;56843;52.020;5.670;2023-02-03T08:09:50;102237.22;;;13.15;66.46
69624;BME280;56843;52.020;5.670;2023-02-03T08:11:21;102242.28;;;13.17;66.76
69624;BME280;56843;52.020;5.670;2023-02-03T08:12:54;102235.81;;;13.18;66.72
69624;BME280;56843;52.020;5.670;2023-02-03T08:14:25;102251.13;;;13.17;66.73
69624;BME280;56843;52.020;5.670;2023-02-03T08:15:55;102255.41;;;13.18;66.67
69624;BME280;56843;52.020;5.670;2023-02-03T08:17:26;102259.97;;;13.18;66.55
69624;BME280;56843;52.020;5.670;2023-02-03T08:18:56;102255.88;;;13.20;66.28
69624;BME280;56843;52.020;5.670;2023-02-03T08:20:27;102262.81;;;13.21;66.24
69624;BME280;56843;52.020;5.670;2023-02-03T08:21:58;102255.09;;;13.20;66.42
69624;BME280;56843;52.020;5.670;2023-02-03T08:23:29;102264.72;;;13.21;66.61
69624;BME280;56843;52.020;5.670;2023-02-03T08:25:00;102258.25;;;13.22;66.29
69624;BME280;56843;52.020;5.670;2023-02-03T08:26:30;102251.31;;;13.21;66.49
69624;BME280;56843;52.020;5.670;2023-02-03T08:28:01;102255.88;;;13.20;66.26